HRHO2: North Canadian River

                                SHEF ID:       HRHO2     North Canadian River near Harrah
STATION TYPE:
Regulating: Stage = 15.00, Flow = 8563

STAGE RIV-FLOW WTR-TEMP DIS-OXY PH CONDUCT BAT-LOAD
ft cfs F mg/l su umho/cm volt
Ccp-Rev Ccp-Rev Ccp-Rev Ccp-Rev Ccp-Rev Ccp-Rev Ccp-Rev
(America/Chicago)
04/26 00:00 3.38 150 69.91 7.40 7.71 844 12.06
04/26 01:00 3.38 150 69.80 7.23 7.69 848 12.06
04/26 02:00 3.38 150 69.51 7.17 7.67 850 12.06
04/26 03:00 3.39 151 69.22 7.11 7.65 857 12.04
04/26 04:00 3.39 151 69.01 7.08 7.65 866 12.04
04/26 05:00 3.39 151 68.77 7.13 7.65 879 12.02
04/26 06:00 3.39 151 68.54 7.11 7.66 895 12.01
04/26 07:00 3.40 153 68.38 7.15 7.66 913 12.00
04/26 08:00 3.40 153 68.41 7.04 7.69 931 11.99
04/26 09:00 3.40 153 69.22 7.81 7.76 948 12.11
04/26 10:00 3.40 153 70.74 8.56 7.83 961 12.50
04/26 11:00 3.40 153 72.75 9.21 7.91 970 12.90
04/26 12:00 3.40 153 74.93 9.57 7.98 970 13.01
04/26 13:00 3.40 153 76.73 10.00 8.05 965 13.09
04/26 14:00 3.40 153 78.42 10.38 8.12 952 13.06
04/26 15:00 3.40 153 80.31 10.64 8.19 938 12.88
04/26 16:00 3.39 151 81.00 10.71 8.25 923 13.09
04/26 17:00 3.39 151 81.46 10.78 8.29 910 12.98
04/26 18:00 3.39 151 81.01 10.45 8.33 896 12.84
04/26 19:00 3.38 150 79.92 9.64 8.31 887 12.77
04/26 20:00 3.37 148 78.73 8.68 8.25 880 12.60
04/26 21:00 3.37 148 77.41 7.97 8.17 875 12.32
04/26 22:00 3.37 148 76.32 7.29 8.06 872 12.17
04/26 23:00 3.37 148 75.90 7.07 8.02 868 12.07
Data processed at Mon 27Apr2026 04:25 GMT

NOTICE: If you are parsing this page

Please convert to using our Data API. Starting early 2026 we will be migrating to: https://water.usace.army.mil with modern pages rendered in JavaScript. When this migration completes you will no longer be able to scrape this page! CWMSDataAPI (CDA)

Timeseries IDs (TSIDs)

TSIDs used from left to right in the data table
HARR.Stage.Inst.1Hour.0.Ccp-Rev
HARR.Flow.Inst.1Hour.0.Ccp-Rev
HARR.Temp-Water.Inst.1Hour.0.Ccp-Rev
HARR.Conc-DO.Inst.1Hour.0.Ccp-Rev
HARR.pH.Inst.1Hour.0.Ccp-Rev
HARR.Cond-Water.Inst.1Hour.0.Ccp-Rev
HARR.Volt-Battery Load.Inst.1Hour.0.Ccp-Rev

                            

All information presented herein is the property of the government of the United States of America and may be revised or deleted at any time without prior notice. Dissemination of this information without the expressed written consent of the Public Affairs Office, Tulsa District U.S. Army Corps of Engineers is strictly prohibited. These data are gathered electronically and, as presented, have NOT undergone any form of quality control. These data are NOT guaranteed to be valid or correct.